Time;durP1;ratioP1;P1;durP2;ratioP2;P2;SDS_P1;SDS_P2;PMS_P1;PMS_P2;Temp;Humidity;BMP_temperature;BMP_pressure;BME280_temperature;BME280_humidity;BME280_pressure;Samples;Min_cycle;Max_cycle;Signal;HPM_P1;HPM_P2
2023/09/17 00:00:32;;;;;;;7.90;5.93;;;21.40;1.00;;;;;;4987743;28;20479;-78
2023/09/17 00:02:58;;;;;;;7.77;5.40;;;21.50;1.00;;;;;;4984357;28;20917;-79
2023/09/17 00:05:24;;;;;;;7.93;5.70;;;21.60;1.00;;;;;;4985611;28;20202;-78
2023/09/17 00:07:49;;;;;;;8.60;6.23;;;21.60;1.00;;;;;;4980595;28;20784;-77
2023/09/17 00:10:15;;;;;;;7.17;6.03;;;21.70;1.00;;;;;;4978410;28;20190;-78
2023/09/17 00:12:41;;;;;;;8.10;6.27;;;21.70;1.00;;;;;;4984482;28;20198;-78
2023/09/17 00:15:07;;;;;;;7.10;5.83;;;21.70;1.00;;;;;;4970023;28;20317;-78
2023/09/17 00:17:33;;;;;;;8.30;6.23;;;21.70;1.00;;;;;;4983897;28;20194;-77
2023/09/17 00:19:58;;;;;;;8.30;6.33;;;21.70;1.00;;;;;;4966731;28;20461;-78
2023/09/17 00:22:24;;;;;;;8.00;6.60;;;21.70;1.00;;;;;;4972772;28;20178;-77
2023/09/17 00:24:50;;;;;;;8.47;6.50;;;21.70;1.00;;;;;;4987358;28;20195;-79
2023/09/17 00:27:15;;;;;;;7.80;6.17;;;21.70;1.00;;;;;;4988259;28;20194;-77
2023/09/17 00:29:41;;;;;;;8.93;6.13;;;21.70;1.00;;;;;;4989307;28;20198;-79
2023/09/17 00:32:07;;;;;;;7.47;6.20;;;21.70;1.00;;;;;;4982056;28;20237;-76
2023/09/17 00:34:32;;;;;;;10.07;6.50;;;21.50;1.00;;;;;;4991153;28;20218;-77
2023/09/17 00:37:00;;;;;;;7.80;6.37;;;21.50;1.00;;;;;;4991297;28;20186;-78
2023/09/17 00:39:26;;;;;;;9.03;6.47;;;21.50;1.00;;;;;;4990927;28;20266;-78
2023/09/17 00:41:52;;;;;;;8.67;6.47;;;21.40;1.00;;;;;;4990291;28;20476;-80
2023/09/17 00:44:18;;;;;;;8.27;6.20;;;21.30;1.00;;;;;;4991410;28;20548;-77
2023/09/17 00:46:43;;;;;;;8.33;6.63;;;21.20;1.00;;;;;;4990829;28;20199;-78
2023/09/17 00:49:13;;;;;;;9.27;7.23;;;21.20;1.00;;;;;;4990455;28;20182;-77
2023/09/17 00:51:40;;;;;;;13.80;6.93;;;21.20;1.00;;;;;;4991032;28;20237;-78
2023/09/17 00:54:07;;;;;;;7.50;6.40;;;21.20;1.00;;;;;;4990094;28;20672;-78
2023/09/17 00:56:33;;;;;;;11.53;7.20;;;21.10;1.00;;;;;;4990417;28;20493;-76
2023/09/17 00:58:59;;;;;;;12.50;7.40;;;21.10;1.00;;;;;;4971311;28;21029;-80
2023/09/17 01:01:25;;;;;;;9.93;7.93;;;21.10;1.00;;;;;;4989855;28;20202;-79
2023/09/17 01:03:51;;;;;;;12.40;7.77;;;21.20;1.00;;;;;;4990480;28;20449;-79
2023/09/17 01:06:17;;;;;;;10.03;7.40;;;21.20;1.00;;;;;;4971385;28;20206;-78
2023/09/17 01:08:42;;;;;;;9.90;7.60;;;21.20;1.00;;;;;;4990494;28;20195;-76
2023/09/17 01:11:09;;;;;;;9.50;8.20;;;21.20;1.00;;;;;;4990948;28;20186;-77
2023/09/17 01:13:40;;;;;;;8.80;7.23;;;21.20;1.00;;;;;;4990908;28;20183;-79
2023/09/17 01:16:06;;;;;;;11.13;8.70;;;21.10;1.00;;;;;;4988388;28;20476;-78
2023/09/17 01:18:33;;;;;;;11.33;9.40;;;21.10;1.00;;;;;;4990493;28;20441;-78
2023/09/17 01:21:05;;;;;;;14.13;10.30;;;21.00;1.00;;;;;;4990379;28;20481;-77
2023/09/17 01:23:40;;;;;;;12.93;9.60;;;21.00;1.00;;;;;;4990786;28;20469;-77
2023/09/17 01:26:39;;;;;;;10.57;8.80;;;21.10;1.00;;;;;;4989029;28;21056;-77
2023/09/17 01:29:05;;;;;;;11.73;8.70;;;21.10;1.00;;;;;;4941313;28;20466;-77
2023/09/17 01:31:30;;;;;;;12.23;8.40;;;21.10;1.00;;;;;;4990167;28;20443;-78
2023/09/17 01:33:56;;;;;;;12.63;9.50;;;21.10;1.00;;;;;;4989975;28;20740;-78
2023/09/17 01:36:33;;;;;;;11.33;8.93;;;21.10;1.00;;;;;;4989379;28;20202;-78
2023/09/17 01:39:12;;;;;;;10.60;9.00;;;21.10;1.00;;;;;;4990483;28;20684;-78
2023/09/17 01:41:39;;;;;;;10.57;8.60;;;21.10;1.00;;;;;;4972902;28;20861;-77
2023/09/17 01:44:07;;;;;;;12.50;8.93;;;21.20;1.00;;;;;;4989294;28;20442;-80
2023/09/17 01:46:34;;;;;;;9.90;8.90;;;21.30;1.00;;;;;;4987719;28;20457;-78
2023/09/17 01:49:00;;;;;;;15.17;9.13;;;21.30;1.00;;;;;;4965682;28;20434;-76
2023/09/17 01:51:28;;;;;;;13.00;9.00;;;24.00;1.00;;;;;;4990224;28;21018;-77
2023/09/17 01:53:54;;;;;;;11.37;9.20;;;21.30;1.00;;;;;;4989966;28;20194;-78
2023/09/17 01:56:21;;;;;;;11.17;9.93;;;21.40;1.00;;;;;;4989906;28;20832;-77
2023/09/17 01:58:46;;;;;;;11.97;10.00;;;21.30;1.00;;;;;;4989456;28;20441;-78
2023/09/17 02:01:13;;;;;;;12.10;9.70;;;24.50;1.00;;;;;;4989976;28;20469;-79
2023/09/17 02:03:39;;;;;;;11.73;9.60;;;21.30;1.00;;;;;;4990041;28;20182;-78
2023/09/17 02:06:05;;;;;;;11.73;9.60;;;21.30;1.00;;;;;;4987780;28;20457;-77
2023/09/17 02:08:30;;;;;;;10.57;9.27;;;21.30;1.00;;;;;;4987146;28;20198;-78
2023/09/17 02:10:56;;;;;;;13.20;10.20;;;21.30;1.00;;;;;;4989780;28;20206;-77
2023/09/17 02:13:22;;;;;;;18.03;10.20;;;21.20;1.00;;;;;;4989453;28;20185;-79
2023/09/17 02:15:48;;;;;;;14.00;11.13;;;21.20;1.00;;;;;;4972552;28;20206;-79
2023/09/17 02:18:14;;;;;;;11.83;10.13;;;21.20;1.00;;;;;;4989741;28;20225;-78
2023/09/17 02:20:40;;;;;;;18.73;11.00;;;21.20;1.00;;;;;;4971961;28;20731;-78
2023/09/17 02:23:06;;;;;;;16.20;11.10;;;21.30;1.00;;;;;;4988375;28;20433;-79
2023/09/17 02:25:32;;;;;;;13.00;11.03;;;21.30;1.00;;;;;;4987844;28;20703;-78
2023/09/17 02:27:58;;;;;;;14.00;11.23;;;21.30;1.00;;;;;;4972182;28;20449;-77
2023/09/17 02:30:24;;;;;;;13.50;10.93;;;21.40;1.00;;;;;;4988915;28;20453;-76
2023/09/17 02:32:49;;;;;;;14.43;9.90;;;21.50;1.00;;;;;;4988993;28;20469;-75
2023/09/17 02:35:15;;;;;;;12.80;10.63;;;21.50;1.00;;;;;;4988721;28;20202;-76
2023/09/17 02:37:40;;;;;;;15.80;10.60;;;21.50;1.00;;;;;;4988133;28;20237;-77
2023/09/17 02:40:08;;;;;;;14.23;10.73;;;21.40;1.00;;;;;;4988746;28;20218;-76
2023/09/17 02:42:35;;;;;;;11.03;9.80;;;21.40;1.00;;;;;;4987921;28;20193;-76
2023/09/17 02:45:02;;;;;;;14.70;9.97;;;21.40;1.00;;;;;;4971579;28;20457;-75
2023/09/17 02:47:28;;;;;;;13.03;9.80;;;21.40;1.00;;;;;;4987942;28;20429;-76
2023/09/17 02:49:53;;;;;;;13.50;9.93;;;21.40;1.00;;;;;;4987476;28;20533;-76
2023/09/17 02:52:19;;;;;;;13.90;10.40;;;21.30;1.00;;;;;;4988893;28;20183;-77
2023/09/17 02:54:44;;;;;;;11.07;9.37;;;21.40;1.00;;;;;;4988869;28;21997;-76
2023/09/17 02:57:10;;;;;;;13.23;9.10;;;21.30;1.00;;;;;;4971292;28;20171;-77
2023/09/17 02:59:35;;;;;;;10.90;9.00;;;21.30;1.00;;;;;;4988994;28;20203;-75
2023/09/17 03:02:01;;;;;;;10.50;9.20;;;21.30;1.00;;;;;;4971429;28;20237;-76
2023/09/17 03:04:28;;;;;;;10.27;8.60;;;21.40;1.00;;;;;;4985702;28;20649;-77
2023/09/17 03:06:53;;;;;;;13.17;9.80;;;21.30;1.00;;;;;;4988021;28;20256;-74
2023/09/17 03:09:19;;;;;;;11.57;9.20;;;22.90;1.00;;;;;;4981180;28;20967;-76
2023/09/17 03:11:45;;;;;;;14.20;10.27;;;21.30;1.00;;;;;;4980756;28;20258;-76
2023/09/17 03:14:10;;;;;;;13.27;9.33;;;21.20;1.00;;;;;;4963628;28;20191;-75
2023/09/17 03:16:36;;;;;;;11.47;10.20;;;21.20;1.00;;;;;;4981080;28;20296;-75
2023/09/17 03:19:01;;;;;;;12.80;10.30;;;21.10;1.00;;;;;;4981567;28;20190;-75
2023/09/17 03:21:27;;;;;;;11.13;9.83;;;21.00;1.00;;;;;;4987381;28;20210;-76
2023/09/17 03:23:52;;;;;;;12.33;10.00;;;21.10;1.00;;;;;;4989048;28;20209;-76
2023/09/17 03:26:18;;;;;;;16.23;10.20;;;21.00;1.00;;;;;;4988045;28;20199;-75
2023/09/17 03:28:43;;;;;;;11.80;10.37;;;21.00;1.00;;;;;;4988219;28;20253;-76
2023/09/17 03:31:09;;;;;;;12.97;10.03;;;21.10;1.00;;;;;;4970350;28;20534;-76
2023/09/17 03:33:34;;;;;;;13.43;10.10;;;21.10;1.00;;;;;;4988329;28;20190;-75
2023/09/17 03:36:00;;;;;;;17.17;10.30;;;21.00;1.00;;;;;;4988189;28;20242;-76
2023/09/17 03:38:26;;;;;;;10.80;9.53;;;21.00;1.00;;;;;;4986857;28;20210;-76
2023/09/17 03:40:51;;;;;;;14.40;10.13;;;21.00;1.00;;;;;;4988464;28;20572;-77
2023/09/17 03:43:17;;;;;;;12.77;9.83;;;21.00;1.00;;;;;;4987070;28;20681;-76
2023/09/17 03:45:43;;;;;;;13.80;10.90;;;21.10;1.00;;;;;;4988150;28;20277;-76
2023/09/17 03:48:08;;;;;;;11.40;9.93;;;21.00;1.00;;;;;;4987571;28;21045;-76
2023/09/17 03:50:39;;;;;;;16.20;10.80;;;20.20;1.00;;;;;;4981725;28;20612;-75
2023/09/17 03:53:06;;;;;;;15.63;11.10;;;21.10;1.00;;;;;;4987860;28;20191;-76
2023/09/17 03:55:33;;;;;;;12.53;9.97;;;21.10;1.00;;;;;;4987777;28;20459;-76
2023/09/17 03:58:00;;;;;;;13.47;11.23;;;21.10;1.00;;;;;;4991175;28;20847;-75
2023/09/17 04:00:25;;;;;;;14.53;11.00;;;21.10;1.00;;;;;;4974359;28;20462;-76
2023/09/17 04:02:52;;;;;;;13.57;10.80;;;21.10;1.00;;;;;;4990780;28;20502;-77
2023/09/17 04:05:18;;;;;;;11.40;9.77;;;21.10;1.00;;;;;;4974093;28;20199;-76
2023/09/17 04:07:45;;;;;;;20.73;11.10;;;21.10;1.00;;;;;;4990915;28;20444;-75
2023/09/17 04:10:15;;;;;;;16.00;10.57;;;21.10;1.00;;;;;;4989311;28;20202;-77
2023/09/17 04:12:42;;;;;;;13.27;10.90;;;21.10;1.00;;;;;;4991799;28;20803;-76
2023/09/17 04:15:13;;;;;;;15.10;10.90;;;21.10;1.00;;;;;;4990909;28;20532;-75
2023/09/17 04:17:42;;;;;;;12.73;10.23;;;19.90;1.00;;;;;;4973900;28;21070;-76
2023/09/17 04:20:13;;;;;;;15.70;10.20;;;21.10;1.00;;;;;;4974388;28;20488;-76
2023/09/17 04:22:43;;;;;;;13.17;10.80;;;21.20;1.00;;;;;;4990746;28;20458;-75
2023/09/17 04:25:09;;;;;;;11.73;10.07;;;21.10;1.00;;;;;;4989732;28;20528;-76
2023/09/17 04:27:36;;;;;;;14.00;11.17;;;21.10;1.00;;;;;;4990523;28;20749;-76
2023/09/17 04:30:05;;;;;;;12.87;10.80;;;21.10;1.00;;;;;;4990794;28;20437;-74
2023/09/17 04:32:33;;;;;;;12.60;10.50;;;21.10;1.00;;;;;;4973599;28;20430;-76
2023/09/17 04:34:59;;;;;;;11.33;9.97;;;21.10;1.00;;;;;;4969824;28;21074;-75
2023/09/17 04:37:25;;;;;;;16.00;10.77;;;21.10;1.00;;;;;;4973592;28;20445;-75
2023/09/17 04:39:50;;;;;;;12.57;10.47;;;21.20;1.00;;;;;;4973987;28;20505;-75
2023/09/17 04:42:17;;;;;;;12.80;11.00;;;21.20;1.00;;;;;;4973389;28;20604;-75
2023/09/17 04:44:42;;;;;;;14.47;11.03;;;21.10;1.00;;;;;;4990495;28;20190;-75
2023/09/17 04:47:08;;;;;;;12.83;10.80;;;21.10;1.00;;;;;;4991174;28;21096;-75
2023/09/17 04:49:35;;;;;;;12.80;11.13;;;21.10;1.00;;;;;;4973178;28;20182;-75
2023/09/17 04:52:01;;;;;;;12.37;9.83;;;21.00;1.00;;;;;;4986716;28;20182;-77
2023/09/17 04:54:26;;;;;;;11.43;9.93;;;21.00;1.00;;;;;;4988041;28;20532;-76
2023/09/17 04:56:52;;;;;;;12.37;10.13;;;20.90;1.00;;;;;;4961396;28;20191;-75
2023/09/17 04:59:17;;;;;;;11.37;9.90;;;20.90;1.00;;;;;;4991133;28;20186;-75
2023/09/17 05:01:43;;;;;;;12.67;10.10;;;20.90;1.00;;;;;;4991066;28;20257;-75
2023/09/17 05:04:09;;;;;;;12.57;10.30;;;20.90;1.00;;;;;;4988967;28;20178;-75
2023/09/17 05:06:35;;;;;;;13.00;10.80;;;20.80;1.00;;;;;;4989463;28;20672;-75
2023/09/17 05:09:00;;;;;;;12.47;9.73;;;20.80;1.00;;;;;;4987887;28;20474;-74
2023/09/17 05:11:26;;;;;;;12.27;10.00;;;20.70;1.00;;;;;;4989584;28;20596;-76
2023/09/17 05:13:51;;;;;;;11.63;10.10;;;20.60;1.00;;;;;;4991851;28;20179;-73
2023/09/17 05:16:17;;;;;;;11.17;9.97;;;20.50;1.00;;;;;;4989042;28;20205;-74
2023/09/17 05:18:43;;;;;;;12.40;10.30;;;20.50;1.00;;;;;;4991249;28;20191;-78
2023/09/17 05:21:09;;;;;;;13.93;9.90;;;20.50;1.00;;;;;;4973453;28;20581;-74
2023/09/17 05:23:35;;;;;;;17.17;10.80;;;20.40;1.00;;;;;;4989602;28;20454;-76
2023/09/17 05:26:00;;;;;;;13.30;10.87;;;20.40;1.00;;;;;;4990643;28;20211;-75
2023/09/17 05:28:26;;;;;;;13.23;9.67;;;20.40;1.00;;;;;;4986386;28;20720;-74
2023/09/17 05:30:55;;;;;;;12.47;10.20;;;20.40;1.00;;;;;;4989117;28;20306;-73
2023/09/17 05:33:21;;;;;;;14.10;10.03;;;20.50;1.00;;;;;;4990211;28;20700;-75
2023/09/17 05:35:47;;;;;;;15.50;10.00;;;20.60;1.00;;;;;;4989145;28;20555;-73
2023/09/17 05:38:12;;;;;;;12.10;9.73;;;20.70;1.00;;;;;;4991154;28;20213;-74
2023/09/17 05:40:38;;;;;;;11.63;9.00;;;20.70;1.00;;;;;;4988802;28;20551;-74
2023/09/17 05:43:04;;;;;;;11.50;8.33;;;20.80;1.00;;;;;;4989433;28;20715;-77
2023/09/17 05:45:29;;;;;;;10.00;8.80;;;20.90;1.00;;;;;;4989011;28;20206;-77
2023/09/17 05:47:55;;;;;;;13.20;9.73;;;20.90;1.00;;;;;;4989238;28;20186;-74
2023/09/17 05:50:21;;;;;;;14.83;9.87;;;21.00;1.00;;;;;;4988608;28;20186;-75
2023/09/17 05:52:46;;;;;;;13.00;9.80;;;21.10;1.00;;;;;;4988365;28;20190;-75
2023/09/17 05:55:12;;;;;;;16.57;9.10;;;21.20;1.00;;;;;;4988949;28;20206;-76
2023/09/17 05:57:37;;;;;;;9.63;8.60;;;21.20;1.00;;;;;;4988472;28;20266;-74
2023/09/17 06:00:03;;;;;;;10.20;8.87;;;21.20;1.00;;;;;;4988551;28;20202;-75
2023/09/17 06:02:29;;;;;;;11.00;9.20;;;21.30;1.00;;;;;;4986687;28;20186;-76
2023/09/17 06:04:55;;;;;;;12.23;8.70;;;21.40;1.00;;;;;;4967874;28;20827;-77
2023/09/17 06:07:21;;;;;;;12.57;9.20;;;21.40;1.00;;;;;;4987547;28;20261;-79
2023/09/17 06:09:46;;;;;;;12.97;9.33;;;21.50;1.00;;;;;;4989012;28;20278;-79
2023/09/17 06:12:12;;;;;;;10.90;8.50;;;21.60;1.00;;;;;;4988862;28;20249;-77
2023/09/17 06:14:41;;;;;;;11.37;8.60;;;21.90;1.00;;;;;;4988968;28;20233;-76
2023/09/17 06:17:08;;;;;;;11.63;8.50;;;21.90;1.00;;;;;;4988355;28;20874;-77
2023/09/17 06:19:34;;;;;;;11.80;8.93;;;22.10;1.00;;;;;;4987834;28;20819;-79
2023/09/17 06:22:00;;;;;;;11.97;8.43;;;22.40;1.00;;;;;;4989009;28;20995;-77
2023/09/17 06:24:26;;;;;;;10.23;8.90;;;22.80;1.00;;;;;;4987802;28;20452;-76
2023/09/17 06:26:51;;;;;;;11.20;8.67;;;23.10;1.00;;;;;;4986343;28;20225;-77
2023/09/17 06:29:17;;;;;;;9.57;8.13;;;23.60;1.00;;;;;;4989450;28;20206;-78
2023/09/17 06:31:43;;;;;;;13.93;8.50;;;24.10;1.00;;;;;;4986955;28;20183;-80
2023/09/17 06:34:09;;;;;;;9.73;7.67;;;24.70;1.00;;;;;;4985554;28;20194;-79
2023/09/17 06:36:36;;;;;;;9.70;7.97;;;25.20;1.00;;;;;;4969870;28;20211;-78
2023/09/17 06:39:04;;;;;;;11.50;8.43;;;25.10;1.00;;;;;;4988217;28;20282;-76
2023/09/17 06:41:29;;;;;;;11.60;8.60;;;24.90;1.00;;;;;;4987649;28;20465;-77
2023/09/17 06:43:55;;;;;;;10.93;8.10;;;24.80;1.00;;;;;;4988402;28;20444;-77
2023/09/17 06:46:23;;;;;;;13.47;8.37;;;24.70;1.00;;;;;;4988558;28;20612;-77
2023/09/17 06:48:49;;;;;;;9.10;8.20;;;24.90;1.00;;;;;;4988447;28;20546;-77
2023/09/17 06:51:15;;;;;;;8.33;7.43;;;25.30;1.00;;;;;;4985959;28;20441;-78
2023/09/17 06:53:40;;;;;;;13.13;7.40;;;25.50;1.00;;;;;;4985563;28;20199;-78
2023/09/17 06:56:08;;;;;;;12.10;7.70;;;25.50;1.00;;;;;;4984887;28;20957;-76
2023/09/17 06:58:34;;;;;;;8.20;7.40;;;25.30;1.00;;;;;;4987789;28;20279;-79
2023/09/17 07:01:00;;;;;;;8.60;7.53;;;25.10;1.00;;;;;;4987717;28;20466;-78
2023/09/17 07:03:25;;;;;;;8.37;7.43;;;25.10;1.00;;;;;;4988435;28;20186;-78
2023/09/17 07:05:51;;;;;;;9.80;7.63;;;25.00;1.00;;;;;;4984845;28;20213;-79
2023/09/17 07:08:16;;;;;;;8.77;7.50;;;25.30;1.00;;;;;;4986624;28;20185;-77
2023/09/17 07:10:43;;;;;;;9.87;7.23;;;25.90;1.00;;;;;;4987008;28;20649;-78
2023/09/17 07:13:09;;;;;;;11.47;8.10;;;26.70;1.00;;;;;;4984183;28;20194;-78
2023/09/17 07:15:35;;;;;;;10.67;7.33;;;27.30;1.00;;;;;;4968123;28;20232;-78
2023/09/17 07:18:00;;;;;;;8.13;7.30;;;27.40;1.00;;;;;;4988323;28;20189;-78
2023/09/17 07:20:26;;;;;;;9.87;7.77;;;27.40;1.00;;;;;;4984714;28;20208;-78
2023/09/17 07:22:52;;;;;;;8.43;7.53;;;27.90;1.00;;;;;;4979717;28;20657;-82
2023/09/17 07:25:17;;;;;;;10.80;7.70;;;28.70;1.00;;;;;;4983481;28;20274;-80
2023/09/17 07:27:43;;;;;;;8.85;7.57;;;29.10;1.00;;;;;;4984975;28;20293;-77
2023/09/17 07:30:08;;;;;;;8.03;6.80;;;29.90;1.00;;;;;;4982077;28;20447;-77
2023/09/17 07:32:34;;;;;;;7.60;6.80;;;30.50;1.00;;;;;;4983726;28;20552;-80
2023/09/17 07:35:03;;;;;;;28.75;25.88;;;31.50;1.00;;;;;;4985853;28;20443;-74
2023/09/17 07:37:28;;;;;;;8.60;7.07;;;31.50;1.00;;;;;;4985139;28;20538;-80
2023/09/17 07:40:01;;;;;;;7.93;6.80;;;32.10;1.00;;;;;;4982837;28;20271;-76
2023/09/17 07:42:26;;;;;;;8.95;7.03;;;32.30;1.00;;;;;;4982353;28;20261;-76
2023/09/17 07:44:52;;;;;;;7.78;6.90;;;32.60;1.00;;;;;;4982714;28;20271;-80
2023/09/17 07:47:18;;;;;;;7.90;6.75;;;32.60;1.00;;;;;;4986961;28;20175;-80
2023/09/17 07:49:43;;;;;;;7.95;7.10;;;32.50;1.00;;;;;;4969224;28;20197;-76
2023/09/17 07:52:09;;;;;;;8.00;6.60;;;32.60;1.00;;;;;;4983870;28;20225;-79
2023/09/17 07:54:39;;;;;;;9.30;7.20;;;33.30;1.00;;;;;;4965778;28;20209;-77
2023/09/17 07:57:06;;;;;;;8.60;7.20;;;33.30;1.00;;;;;;4986809;28;20242;-76
2023/09/17 07:59:31;;;;;;;8.20;6.53;;;33.30;1.00;;;;;;4986188;28;20193;-79
2023/09/17 08:01:58;;;;;;;9.23;7.15;;;33.00;1.00;;;;;;4965030;28;20198;-75
2023/09/17 08:04:24;;;;;;;9.40;7.07;;;32.60;1.00;;;;;;4984292;28;20753;-82
2023/09/17 08:06:50;;;;;;;10.63;6.30;;;33.10;1.00;;;;;;4987219;28;20194;-76
2023/09/17 08:09:16;;;;;;;7.63;6.88;;;33.20;1.00;;;;;;4983520;28;20183;-75
2023/09/17 08:11:42;;;;;;;7.55;6.85;;;32.90;1.00;;;;;;4983727;28;20183;-76
2023/09/17 08:14:09;;;;;;;9.85;7.07;;;32.60;1.00;;;;;;4985143;28;20233;-77
2023/09/17 08:16:35;;;;;;;8.88;7.97;;;32.20;1.00;;;;;;4986577;28;20210;-77
2023/09/17 08:19:01;;;;;;;9.07;6.93;;;31.90;1.00;;;;;;4987878;28;20690;-77
2023/09/17 08:21:27;;;;;;;8.68;6.63;;;32.10;1.00;;;;;;4969759;28;20826;-81
2023/09/17 08:23:52;;;;;;;7.40;6.57;;;32.60;1.00;;;;;;4986606;28;20183;-79
2023/09/17 08:26:18;;;;;;;8.40;7.25;;;32.90;1.00;;;;;;4969301;28;20198;-77
2023/09/17 08:28:45;;;;;;;9.45;6.82;;;33.10;1.00;;;;;;4984488;28;20186;-76
2023/09/17 08:31:11;;;;;;;7.95;6.55;;;33.60;1.00;;;;;;4987246;28;20637;-80
2023/09/17 08:33:36;;;;;;;10.43;7.20;;;34.50;1.00;;;;;;4985643;28;20309;-78
2023/09/17 08:36:02;;;;;;;13.57;6.60;;;34.90;1.00;;;;;;4986970;28;20238;-77
2023/09/17 08:38:29;;;;;;;10.05;7.30;;;35.10;1.00;;;;;;4987600;28;20244;-79
2023/09/17 08:40:56;;;;;;;7.40;6.68;;;35.10;1.00;;;;;;4987057;28;20290;-79
2023/09/17 08:43:23;;;;;;;7.85;6.22;;;35.10;1.00;;;;;;4989076;28;20174;-79
2023/09/17 08:45:50;;;;;;;7.65;6.55;;;34.90;1.00;;;;;;4984974;28;20250;-79
2023/09/17 08:48:17;;;;;;;9.07;6.18;;;34.40;1.00;;;;;;4974132;28;20187;-83
2023/09/17 08:50:46;;;;;;;8.02;6.25;;;34.30;1.00;;;;;;4986994;28;20219;-80
2023/09/17 08:53:18;;;;;;;7.95;7.05;;;34.30;1.00;;;;;;4987123;28;20641;-80
2023/09/17 08:55:45;;;;;;;7.47;6.53;;;35.20;1.00;;;;;;4971428;28;20601;-79
2023/09/17 08:58:21;;;;;;;10.63;7.13;;;35.40;1.00;;;;;;4992315;28;20264;-79
2023/09/17 09:00:50;;;;;;;7.60;6.90;;;35.90;1.00;;;;;;4985199;28;20566;-79
2023/09/17 09:03:17;;;;;;;6.70;5.93;;;36.20;1.00;;;;;;4988372;28;20183;-78
2023/09/17 09:05:44;;;;;;;7.22;6.53;;;36.40;1.00;;;;;;4989905;28;20264;-77
2023/09/17 09:08:12;;;;;;;6.95;5.75;;;36.90;1.00;;;;;;4989867;28;20187;-76
2023/09/17 09:10:37;;;;;;;7.95;5.82;;;37.50;1.00;;;;;;4988017;28;20186;-77
2023/09/17 09:13:03;;;;;;;9.23;5.65;;;38.20;1.00;;;;;;4989109;28;20672;-78
2023/09/17 09:15:29;;;;;;;6.57;5.97;;;38.40;1.00;;;;;;4989395;28;20217;-77
2023/09/17 09:17:55;;;;;;;8.15;5.43;;;38.70;1.00;;;;;;4986497;28;20217;-77
2023/09/17 09:20:21;;;;;;;6.78;5.78;;;38.60;1.00;;;;;;4989461;28;20218;-76
2023/09/17 09:22:47;;;;;;;7.93;5.38;;;39.10;1.00;;;;;;4987468;28;20178;-75
2023/09/17 09:25:14;;;;;;;10.20;5.60;;;38.90;1.00;;;;;;4990163;28;20277;-76
2023/09/17 09:27:39;;;;;;;8.88;5.43;;;39.30;1.00;;;;;;4989877;28;20194;-79
2023/09/17 09:30:09;;;;;;;8.23;5.18;;;39.60;1.00;;;;;;4989777;28;20209;-75
2023/09/17 09:32:35;;;;;;;7.43;4.90;;;40.00;1.00;;;;;;4987815;28;20577;-77
2023/09/17 09:35:01;;;;;;;7.22;4.88;;;39.20;1.00;;;;;;4989857;28;20195;-77
2023/09/17 09:37:27;;;;;;;5.30;4.80;;;39.30;1.00;;;;;;4990178;28;20186;-74
2023/09/17 09:39:52;;;;;;;7.55;4.57;;;39.80;1.00;;;;;;4992252;28;20269;-74
2023/09/17 09:42:18;;;;;;;4.93;4.00;;;39.70;1.00;;;;;;4967922;28;20198;-77
2023/09/17 09:44:45;;;;;;;5.75;4.35;;;40.00;1.00;;;;;;4963672;28;20187;-77
2023/09/17 09:47:13;;;;;;;5.20;4.40;;;39.80;1.00;;;;;;4987409;28;20199;-77
2023/09/17 09:49:43;;;;;;;6.72;4.28;;;40.00;1.00;;;;;;4990076;28;20190;-76
2023/09/17 09:52:12;;;;;;;5.25;4.38;;;39.80;1.00;;;;;;4979805;28;20736;-76
2023/09/17 09:54:39;;;;;;;5.45;4.35;;;40.00;1.00;;;;;;4987609;28;20190;-75
2023/09/17 09:57:05;;;;;;;6.78;4.45;;;40.00;1.00;;;;;;4981933;28;20225;-74
2023/09/17 09:59:34;;;;;;;7.43;4.85;;;40.50;1.00;;;;;;4987207;28;20194;-76
2023/09/17 10:02:04;;;;;;;8.57;4.93;;;40.90;1.00;;;;;;4982176;28;20206;-76
2023/09/17 10:04:30;;;;;;;6.93;4.70;;;40.10;1.00;;;;;;4991260;28;20174;-76
2023/09/17 10:06:56;;;;;;;7.10;4.60;;;40.20;1.00;;;;;;4971421;28;20416;-77
2023/09/17 10:09:25;;;;;;;5.68;4.50;;;40.90;1.00;;;;;;4990493;28;20465;-77
2023/09/17 10:11:51;;;;;;;9.95;4.50;;;42.00;1.00;;;;;;4988051;28;20210;-77
2023/09/17 10:14:20;;;;;;;6.95;4.00;;;42.10;1.00;;;;;;4989869;28;20683;-76
2023/09/17 10:16:45;;;;;;;8.07;4.05;;;41.70;1.00;;;;;;4988777;28;20696;-77
2023/09/17 10:19:18;;;;;;;9.35;4.28;;;41.30;1.00;;;;;;4983134;28;20189;-75
2023/09/17 10:21:45;;;;;;;6.60;4.10;;;41.20;1.00;;;;;;4988457;28;20237;-79
2023/09/17 10:24:13;;;;;;;5.05;4.20;;;41.20;1.00;;;;;;4986181;28;20182;-78
2023/09/17 10:26:42;;;;;;;8.20;4.07;;;41.30;1.00;;;;;;4982549;28;20249;-79
2023/09/17 10:29:12;;;;;;;5.35;3.95;;;41.30;1.00;;;;;;4989615;28;20260;-78
2023/09/17 10:31:40;;;;;;;7.50;4.15;;;41.20;1.00;;;;;;4990663;28;20191;-76
2023/09/17 10:34:08;;;;;;;6.93;4.43;;;41.30;1.00;;;;;;4988030;28;20245;-76
2023/09/17 10:36:36;;;;;;;15.43;4.28;;;40.80;1.00;;;;;;4988311;28;20199;-78
2023/09/17 10:39:02;;;;;;;9.68;4.20;;;41.50;1.00;;;;;;4989419;28;20232;-79
2023/09/17 10:41:32;;;;;;;6.32;4.18;;;41.20;1.00;;;;;;4984254;28;20206;-78
2023/09/17 10:43:59;;;;;;;5.82;3.80;;;41.20;1.00;;;;;;4989831;28;20182;-77
2023/09/17 10:46:28;;;;;;;7.65;4.20;;;41.60;1.00;;;;;;4989307;28;20289;-76
2023/09/17 10:48:55;;;;;;;8.35;4.18;;;42.10;1.00;;;;;;4988934;28;20309;-77
2023/09/17 10:51:21;;;;;;;11.52;4.38;;;41.90;1.00;;;;;;4989045;28;20650;-78
2023/09/17 10:53:46;;;;;;;9.68;4.10;;;41.60;1.00;;;;;;4988060;28;20709;-79
2023/09/17 10:56:16;;;;;;;7.10;3.70;;;41.00;1.00;;;;;;4987240;28;20272;-78
2023/09/17 10:58:49;;;;;;;9.57;3.95;;;40.60;1.00;;;;;;4971125;28;20191;-79
2023/09/17 11:01:19;;;;;;;12.15;4.13;;;40.50;1.00;;;;;;4987973;28;20202;-80
2023/09/17 11:03:48;;;;;;;14.50;4.30;;;40.70;1.00;;;;;;4983107;28;20223;-79
2023/09/17 11:06:23;;;;;;;10.65;4.25;;;39.80;1.00;;;;;;4985017;28;20225;-79
2023/09/17 11:08:51;;;;;;;11.68;4.03;;;39.10;1.00;;;;;;4985628;28;20557;-78
2023/09/17 11:11:17;;;;;;;10.05;3.88;;;39.00;1.00;;;;;;4989373;28;20187;-76
2023/09/17 11:13:46;;;;;;;7.65;3.90;;;38.70;1.00;;;;;;4987170;28;20194;-79
2023/09/17 11:16:14;;;;;;;6.97;3.72;;;38.10;1.00;;;;;;4982712;28;20207;-78
2023/09/17 11:18:40;;;;;;;6.95;3.85;;;38.30;1.00;;;;;;4988680;28;20194;-76
2023/09/17 11:21:07;;;;;;;7.63;3.90;;;38.60;1.00;;;;;;4984554;28;20205;-77
2023/09/17 11:23:43;;;;;;;7.63;3.92;;;38.90;1.00;;;;;;4987962;28;20183;-79
2023/09/17 11:26:13;;;;;;;9.27;4.00;;;39.30;1.00;;;;;;4988532;28;20209;-78
2023/09/17 11:28:39;;;;;;;6.32;3.78;;;39.70;1.00;;;;;;4988943;28;20518;-75
2023/09/17 11:31:09;;;;;;;6.53;3.47;;;39.70;1.00;;;;;;4988027;28;20197;-78
2023/09/17 11:33:37;;;;;;;11.23;4.22;;;39.40;1.00;;;;;;4986225;28;20182;-79
2023/09/17 11:36:04;;;;;;;7.32;3.65;;;39.50;1.00;;;;;;4985397;28;20206;-77
2023/09/17 11:38:30;;;;;;;10.27;4.07;;;39.30;1.00;;;;;;4987228;28;20187;-77
2023/09/17 11:41:10;;;;;;;8.48;3.60;;;39.50;1.00;;;;;;4984240;28;20292;-76
2023/09/17 11:43:38;;;;;;;8.05;3.63;;;39.00;1.00;;;;;;4986835;28;20198;-77
2023/09/17 11:46:05;;;;;;;7.45;4.20;;;38.20;1.00;;;;;;4985755;28;20241;-75
2023/09/17 11:48:32;;;;;;;12.80;4.10;;;38.30;1.00;;;;;;4985934;28;20179;-77
2023/09/17 11:51:23;;;;;;;9.40;3.67;;;38.50;1.00;;;;;;4981967;28;20209;-78
2023/09/17 11:53:52;;;;;;;12.07;3.50;;;38.40;1.00;;;;;;4986486;28;20193;-77
2023/09/17 11:56:19;;;;;;;8.45;3.95;;;38.10;1.00;;;;;;4982995;28;20681;-78
2023/09/17 11:58:45;;;;;;;7.20;3.83;;;37.70;1.00;;;;;;4982004;28;20557;-76
2023/09/17 12:01:11;;;;;;;6.95;3.65;;;37.40;1.00;;;;;;4984080;28;20198;-75
2023/09/17 12:03:37;;;;;;;8.70;3.88;;;37.50;1.00;;;;;;4982045;28;20183;-77
2023/09/17 12:06:04;;;;;;;13.77;4.18;;;37.50;1.00;;;;;;4983506;28;20198;-77
2023/09/17 12:08:31;;;;;;;6.57;3.60;;;37.30;1.00;;;;;;4987832;28;20188;-77
2023/09/17 12:11:02;;;;;;;7.75;3.92;;;37.10;1.00;;;;;;4986241;28;20191;-75
2023/09/17 12:13:30;;;;;;;9.55;4.00;;;37.30;1.00;;;;;;4986105;28;20237;-77
2023/09/17 12:15:57;;;;;;;6.10;3.45;;;37.80;1.00;;;;;;4986762;28;20234;-79
2023/09/17 12:18:24;;;;;;;9.05;3.92;;;37.90;1.00;;;;;;4985862;28;20189;-76
2023/09/17 12:20:59;;;;;;;9.77;3.88;;;38.40;1.00;;;;;;4990839;28;20692;-77
2023/09/17 12:23:37;;;;;;;9.02;3.97;;;37.60;1.00;;;;;;4986532;28;20181;-76
2023/09/17 12:26:04;;;;;;;13.60;4.30;;;37.10;1.00;;;;;;4985415;28;20206;-76
2023/09/17 12:28:29;;;;;;;11.93;3.95;;;37.60;1.00;;;;;;4987006;28;20282;-78
2023/09/17 12:30:55;;;;;;;10.85;3.47;;;38.00;1.00;;;;;;4989772;28;20191;-79
2023/09/17 12:33:22;;;;;;;8.07;4.00;;;39.10;1.00;;;;;;4987017;28;20209;-78
2023/09/17 12:35:47;;;;;;;9.30;4.00;;;40.90;1.00;;;;;;4993746;28;20210;-79
2023/09/17 12:38:13;;;;;;;8.90;3.40;;;41.50;1.00;;;;;;4993862;28;20564;-80
2023/09/17 12:40:41;;;;;;;19.05;4.22;;;41.20;1.00;;;;;;4993027;28;20689;-76
2023/09/17 12:43:08;;;;;;;9.45;3.63;;;41.00;1.00;;;;;;4994908;28;20198;-81
2023/09/17 12:45:34;;;;;;;7.95;4.07;;;39.90;1.00;;;;;;4992056;28;20218;-77
2023/09/17 12:48:00;;;;;;;8.90;4.07;;;40.00;1.00;;;;;;4990848;28;20237;-76